Time;durP1;ratioP1;P1;durP2;ratioP2;P2;SDS_P1;SDS_P2;PMS_P1;PMS_P2;Temp;Humidity;BMP_temperature;BMP_pressure;BME280_temperature;BME280_humidity;BME280_pressure;Samples;Min_cycle;Max_cycle;Signal;HPM_P1;HPM_P2
2022/05/10 03:57:23;;;;;;;3.65;2.40;;;;;;;12.97;100.00;101011.62;6410692;26;19988;31
2022/05/10 04:00:28;;;;;;;2.72;2.50;;;;;;;13.05;100.00;101013.47;6474641;27;35301;-88
2022/05/10 04:03:31;;;;;;;3.25;2.60;;;;;;;13.08;100.00;101008.53;6449412;27;33107;-89
2022/05/10 04:06:34;;;;;;;4.82;2.90;;;;;;;13.20;100.00;101017.06;6450194;27;32256;-89
2022/05/10 04:09:38;;;;;;;3.70;2.42;;;;;;;13.34;100.00;101010.91;6471585;27;34199;-88
2022/05/10 04:12:41;;;;;;;2.62;2.42;;;;;;;13.43;100.00;101011.69;6469722;27;34785;-88
2022/05/10 04:15:43;;;;;;;2.33;2.12;;;;;;;13.54;100.00;101013.13;6449954;27;32623;-89
2022/05/10 04:18:46;;;;;;;2.35;2.15;;;;;;;13.60;100.00;101017.78;6470192;27;33679;-89
2022/05/10 04:21:49;;;;;;;1.70;1.60;;;;;;;13.72;99.42;101019.06;6470306;27;33828;-88
2022/05/10 04:24:52;;;;;;;1.85;1.75;;;;;;;13.88;99.65;101022.63;6452011;27;32859;-88
2022/05/10 04:27:55;;;;;;;2.50;2.20;;;;;;;14.03;98.90;101023.50;6471366;27;35022;-89
2022/05/10 04:30:58;;;;;;;2.22;2.08;;;;;;;14.17;97.14;101028.09;6471740;27;34333;-88
2022/05/10 04:34:01;;;;;;;2.22;1.77;;;;;;;14.24;97.52;101026.34;6470259;27;34214;-88
2022/05/10 04:37:03;;;;;;;4.07;1.80;;;;;;;14.31;96.57;101026.44;6452648;27;32207;-88
2022/05/10 04:43:29;;;;;;;2.58;1.90;;;;;;;14.60;92.63;101044.59;6481876;27;33611;-88
2022/05/10 04:46:35;;;;;;;1.95;1.80;;;;;;;14.69;92.30;101043.44;6454988;27;32482;-88
2022/05/10 04:49:38;;;;;;;2.42;2.20;;;;;;;14.88;90.30;101038.47;6471258;27;34573;-88
2022/05/10 04:52:40;;;;;;;2.25;2.03;;;;;;;14.96;89.87;101041.06;6452174;27;33601;-88
2022/05/10 04:55:43;;;;;;;2.03;1.70;;;;;;;15.13;88.32;101036.25;6471100;27;34304;-88
2022/05/10 04:58:47;;;;;;;2.20;1.98;;;;;;;15.14;87.91;101046.91;6453834;27;32362;-89
2022/05/10 05:01:50;;;;;;;1.83;1.73;;;;;;;15.17;86.64;101041.09;6443378;27;33072;-89
2022/05/10 05:04:55;;;;;;;2.28;1.85;;;;;;;15.28;86.71;101041.63;6444015;27;32725;-89
2022/05/10 05:07:57;;;;;;;2.08;1.73;;;;;;;15.29;86.06;101040.59;6446964;27;34737;-89
2022/05/10 05:11:01;;;;;;;2.10;1.90;;;;;;;15.40;85.49;101043.63;6445019;27;32287;-89
2022/05/10 05:14:04;;;;;;;3.92;2.28;;;;;;;15.51;85.67;101042.28;6454224;27;33554;-88
2022/05/10 05:17:07;;;;;;;2.30;2.10;;;;;;;15.62;83.26;101051.81;6453265;27;33783;-89
2022/05/10 05:20:11;;;;;;;2.62;2.17;;;;;;;15.80;81.61;101052.19;6443411;27;33059;-89
2022/05/10 05:23:18;;;;;;;2.25;1.98;;;;;;;15.99;80.54;101055.25;6445108;27;33385;-89
2022/05/10 05:26:22;;;;;;;2.35;1.95;;;;;;;16.02;79.99;101055.69;6444033;27;33605;-89
2022/05/10 05:29:25;;;;;;;1.65;1.55;;;;;;;16.07;78.53;101058.69;6446233;27;35455;-89
2022/05/10 05:32:48;;;;;;;3.50;1.35;;;;;;;16.02;78.10;101061.13;6447614;27;34233;-89
2022/05/10 05:35:51;;;;;;;1.85;1.67;;;;;;;16.04;77.87;101052.81;6445377;27;34372;-89
2022/05/10 05:38:54;;;;;;;1.45;1.35;;;;;;;16.02;79.31;101058.41;6446386;27;34133;-89
2022/05/10 05:41:57;;;;;;;1.50;1.40;;;;;;;16.06;77.70;101064.31;6444227;27;34829;-89
2022/05/10 05:45:00;;;;;;;1.37;1.27;;;;;;;16.05;76.78;101063.47;6450263;27;34203;-89
2022/05/10 05:48:04;;;;;;;1.23;1.20;;;;;;;16.10;76.01;101057.44;6455438;27;33693;-89
2022/05/10 05:51:06;;;;;;;0.80;0.80;;;;;;;16.19;75.71;101056.25;6444514;27;33258;-89
2022/05/10 05:54:10;;;;;;;1.55;1.45;;;;;;;16.42;76.55;101056.00;6442677;27;32530;-89
2022/05/10 05:57:13;;;;;;;2.50;1.67;;;;;;;16.69;75.31;101062.41;6447532;27;32628;-89
2022/05/10 06:00:20;;;;;;;1.15;1.02;;;;;;;16.81;72.36;101060.00;6444345;27;33948;-89
2022/05/10 06:03:23;;;;;;;0.95;0.95;;;;;;;16.91;71.52;101065.91;6443639;27;34807;-89
2022/05/10 06:06:26;;;;;;;0.68;0.68;;;;;;;17.07;70.97;101072.03;6441829;27;34014;-89
2022/05/10 06:09:29;;;;;;;12.18;0.70;;;;;;;17.34;69.32;101071.06;6444258;27;33430;-89
2022/05/10 06:12:32;;;;;;;0.73;0.73;;;;;;;17.53;67.67;101064.00;6443763;27;34119;-89
2022/05/10 06:15:36;;;;;;;1.23;0.95;;;;;;;17.80;67.18;101070.34;6440106;27;32570;-89
2022/05/10 06:18:39;;;;;;;0.95;0.95;;;;;;;18.12;64.27;101065.94;6442627;27;34364;-89
2022/05/10 06:21:43;;;;;;;0.82;0.80;;;;;;;18.52;64.73;101067.78;6440261;27;33652;-89
2022/05/10 06:24:48;;;;;;;1.17;0.93;;;;;;;18.52;61.77;101068.59;6441709;27;33644;-89
2022/05/10 06:27:53;;;;;;;0.77;0.77;;;;;;;18.44;62.21;101068.00;6442868;27;34640;-89
2022/05/10 06:30:56;;;;;;;0.55;0.55;;;;;;;18.27;62.43;101071.16;6442933;27;34533;-89
2022/05/10 06:33:59;;;;;;;1.00;0.95;;;;;;;18.16;62.64;101063.63;6444356;27;33551;-89
2022/05/10 06:38:15;;;;;;;0.80;0.52;;;;;;;18.17;61.63;101065.31;6445514;27;34349;-89
2022/05/10 06:40:25;;;;;;;2.20;0.75;;;;;;;18.18;62.31;101072.44;6446603;27;34841;-89
2022/05/10 06:43:28;;;;;;;0.75;0.75;;;;;;;18.27;61.69;101057.53;6446477;27;34290;-89
2022/05/10 06:46:37;;;;;;;1.23;0.80;;;;;;;18.15;61.93;101066.56;6455833;27;32577;-89
2022/05/10 06:49:42;;;;;;;2.20;0.90;;;;;;;18.38;62.68;101060.66;6466347;27;34938;-89
2022/05/10 06:52:51;;;;;;;1.10;1.00;;;;;;;18.56;60.07;101055.38;6468774;27;34036;-89
2022/05/10 06:55:54;;;;;;;1.58;1.48;;;;;;;18.58;59.36;101056.00;6448619;27;32744;-89
2022/05/10 06:58:57;;;;;;;0.55;0.55;;;;;;;18.67;59.07;101052.00;6448017;27;32902;-89
2022/05/10 07:01:59;;;;;;;0.95;0.95;;;;;;;18.84;59.87;101048.81;6448437;27;33250;-90
2022/05/10 07:05:03;;;;;;;1.55;0.88;;;;;;;19.06;59.56;101055.62;6468062;27;34438;-90
2022/05/10 07:08:06;;;;;;;0.65;0.65;;;;;;;18.97;57.74;101052.31;6450929;27;33121;-91
2022/05/10 07:11:10;;;;;;;0.60;0.60;;;;;;;19.16;58.00;101044.25;6450641;27;33462;-92
2022/05/10 07:14:13;;;;;;;0.77;0.77;;;;;;;19.43;57.09;101047.69;6449158;27;33597;-93
2022/05/10 07:17:16;;;;;;;1.40;1.25;;;;;;;19.32;56.92;101041.00;6469826;27;33801;-90
2022/05/10 07:20:19;;;;;;;0.45;0.45;;;;;;;19.35;55.33;101039.75;6470089;27;34424;-89
2022/05/10 07:23:29;;;;;;;0.45;0.45;;;;;;;19.55;54.52;101040.44;6450150;27;33135;-88
2022/05/10 07:26:43;;;;;;;0.62;0.62;;;;;;;19.78;54.78;101050.00;6469409;27;34164;-89
2022/05/10 07:29:46;;;;;;;0.68;0.68;;;;;;;19.80;55.02;101037.78;6468391;27;34734;-88
2022/05/10 07:32:50;;;;;;;1.25;0.90;;;;;;;19.74;51.58;101057.75;6469048;27;34187;-89
2022/05/10 07:39:35;;;;;;;1.08;0.95;;;;;;;19.86;53.13;101042.34;6521152;27;33798;-89
2022/05/10 07:42:40;;;;;;;0.80;0.80;;;;;;;20.07;51.19;101049.31;6503643;27;32716;-89
2022/05/10 07:45:50;;;;;;;0.95;0.90;;;;;;;20.09;52.61;101051.81;6471384;27;34037;-88
2022/05/10 07:48:53;;;;;;;0.43;0.43;;;;;;;20.28;54.31;101050.78;6448528;27;33672;-88
2022/05/10 07:51:56;;;;;;;0.98;0.98;;;;;;;20.57;52.92;101041.03;6448736;27;32759;-90
2022/05/10 07:54:59;;;;;;;0.40;0.40;;;;;;;20.62;53.42;101043.09;6468288;27;33900;-89
2022/05/10 07:58:05;;;;;;;0.93;0.82;;;;;;;20.78;50.56;101041.66;6449439;27;32606;-89
2022/05/10 08:01:08;;;;;;;1.08;1.00;;;;;;;20.75;51.48;101037.47;6473817;27;33737;-89
2022/05/10 08:04:11;;;;;;;0.68;0.68;;;;;;;20.80;50.83;101037.63;6478373;27;33825;-89
2022/05/10 08:07:13;;;;;;;1.17;0.98;;;;;;;20.88;46.08;101043.84;6449256;27;32620;-89
2022/05/10 08:10:20;;;;;;;1.27;0.90;;;;;;;20.74;48.69;101035.81;6451596;27;32662;-88
2022/05/10 08:13:26;;;;;;;0.68;0.68;;;;;;;20.86;47.75;101041.34;6453022;27;32082;-89
2022/05/10 08:16:32;;;;;;;0.50;0.50;;;;;;;21.09;46.40;101032.41;6465956;27;33864;-88
2022/05/10 08:19:35;;;;;;;0.62;0.62;;;;;;;21.33;46.06;101030.59;6470020;27;34011;-88
2022/05/10 08:22:38;;;;;;;0.65;0.65;;;;;;;21.59;45.62;101034.03;6468850;27;34469;-89
2022/05/10 08:25:41;;;;;;;1.12;1.02;;;;;;;21.40;45.19;101022.31;6449084;27;32847;-88
2022/05/10 08:28:45;;;;;;;0.60;0.60;;;;;;;21.57;46.19;101026.03;6449347;27;32951;-90
2022/05/10 08:31:48;;;;;;;0.95;0.40;;;;;;;21.99;45.71;101027.88;6468727;27;34272;-92
2022/05/10 08:34:51;;;;;;;1.23;1.12;;;;;;;21.78;43.51;101026.56;6449430;27;33576;-92
2022/05/10 08:37:54;;;;;;;0.73;0.73;;;;;;;22.00;44.21;101030.41;6473123;27;35127;-92
2022/05/10 08:41:19;;;;;;;0.40;0.40;;;;;;;21.90;42.14;101019.16;6449716;27;33767;-89
2022/05/10 08:44:28;;;;;;;0.55;0.55;;;;;;;21.72;42.66;101020.09;6469072;27;35276;-89
2022/05/10 08:47:34;;;;;;;1.02;0.93;;;;;;;21.74;42.29;101020.72;6449653;27;33375;-89
2022/05/10 08:50:39;;;;;;;0.75;0.55;;;;;;;21.96;41.76;101018.22;6449243;27;32964;-88
2022/05/10 08:53:42;;;;;;;0.68;0.62;;;;;;;22.19;41.15;101020.16;6449864;27;32444;-89
2022/05/10 08:56:51;;;;;;;0.75;0.75;;;;;;;22.48;41.26;101009.28;6449840;27;32652;-89
2022/05/10 09:00:03;;;;;;;3.45;1.25;;;;;;;22.64;40.40;101008.56;6479631;27;34274;-88
2022/05/10 09:03:45;;;;;;;0.62;0.62;;;;;;;22.90;40.34;101006.31;6476611;27;34155;-89
2022/05/10 09:06:55;;;;;;;0.57;0.52;;;;;;;23.19;39.69;100999.75;6453855;27;33555;-89
2022/05/10 09:10:08;;;;;;;0.95;0.43;;;;;;;23.24;39.06;100990.78;6470467;27;33801;-88
2022/05/10 09:13:20;;;;;;;0.43;0.43;;;;;;;23.26;37.61;100996.87;6450291;27;33697;-89
2022/05/10 09:16:23;;;;;;;0.68;0.68;;;;;;;23.26;36.36;100999.63;6449911;27;33350;-89
2022/05/10 09:19:38;;;;;;;0.70;0.70;;;;;;;22.85;38.16;101002.38;6449562;27;33308;-88
2022/05/10 09:23:16;;;;;;;1.48;0.77;;;;;;;23.00;37.93;101001.06;6469005;27;35468;-88
2022/05/10 09:26:24;;;;;;;0.52;0.52;;;;;;;22.89;37.98;100994.50;6448576;27;32423;-88
2022/05/10 09:29:38;;;;;;;0.70;0.70;;;;;;;23.25;37.62;100996.03;6447480;27;34214;-88
2022/05/10 09:36:03;;;;;;;0.73;0.73;;;;;;;23.89;36.90;100983.91;6468179;27;33656;-88
2022/05/10 09:39:21;;;;;;;0.30;0.30;;;;;;;24.49;35.69;100982.34;6448847;27;32367;-88
2022/05/10 09:42:27;;;;;;;0.30;0.30;;;;;;;24.66;35.00;100986.69;6473626;27;33821;-88
2022/05/10 09:45:30;;;;;;;0.62;0.40;;;;;;;24.47;34.35;100984.50;6458167;27;32992;-88
2022/05/10 09:48:34;;;;;;;0.40;0.40;;;;;;;24.36;35.03;100991.75;6455993;27;32254;-87
2022/05/10 09:51:40;;;;;;;0.98;0.98;;;;;;;24.31;35.63;100978.78;6467364;27;33864;-88
2022/05/10 09:54:45;;;;;;;0.57;0.37;;;;;;;24.29;35.56;100983.69;6467515;27;33794;-88
2022/05/10 09:57:49;;;;;;;1.00;0.70;;;;;;;24.01;35.94;100981.91;6468663;27;33919;-88
2022/05/10 10:00:56;;;;;;;0.57;0.57;;;;;;;24.40;35.56;100973.66;6471077;27;33975;-88
2022/05/10 10:04:24;;;;;;;0.68;0.68;;;;;;;24.44;35.25;100975.66;6449572;27;33689;-88
2022/05/10 10:07:30;;;;;;;0.62;0.62;;;;;;;24.13;35.93;100968.03;6469389;27;33972;-92
2022/05/10 10:10:37;;;;;;;0.40;0.40;;;;;;;23.54;37.05;100971.25;6468476;27;34437;-92
2022/05/10 10:13:41;;;;;;;0.50;0.50;;;;;;;23.46;36.97;100971.66;6468766;27;34590;-88
2022/05/10 10:16:50;;;;;;;1.05;1.05;;;;;;;23.18;38.16;100967.03;6448612;27;32453;-88
2022/05/10 10:20:10;;;;;;;0.62;0.62;;;;;;;23.43;37.08;100966.66;6468638;27;33822;-87
2022/05/10 10:23:29;;;;;;;0.77;0.75;;;;;;;24.02;35.21;100949.75;6459371;27;343156;-87
2022/05/10 10:26:38;;;;;;;0.77;0.77;;;;;;;24.75;36.07;100951.25;6456740;27;33573;-87
2022/05/10 10:29:53;;;;;;;0.77;0.77;;;;;;;25.07;34.98;100948.56;6450070;27;32757;-88
2022/05/10 10:33:26;;;;;;;1.17;1.10;;;;;;;25.65;34.18;100946.03;6449956;27;32358;-88
2022/05/10 10:36:36;;;;;;;1.05;0.93;;;;;;;25.93;32.74;100942.13;6467595;27;34590;-88
2022/05/10 10:39:50;;;;;;;1.17;1.08;;;;;;;26.25;32.50;100938.44;6449119;27;33272;-88
2022/05/10 10:42:53;;;;;;;1.20;1.10;;;;;;;26.68;33.88;100941.97;6468758;27;34859;-89
2022/05/10 10:46:18;;;;;;;0.60;0.60;;;;;;;27.25;32.73;100935.47;6469757;27;34109;-88
2022/05/10 10:49:30;;;;;;;0.90;0.90;;;;;;;27.48;32.10;100925.78;6451863;27;34069;-91
2022/05/10 10:52:33;;;;;;;1.17;1.08;;;;;;;27.84;30.09;100917.47;6469379;27;34036;-88
2022/05/10 10:55:43;;;;;;;3.00;1.40;;;;;;;27.35;30.86;100918.06;6449335;27;32555;-88
2022/05/10 10:59:00;;;;;;;1.30;1.20;;;;;;;27.20;31.11;100915.28;6472880;27;33574;-89
2022/05/10 11:02:06;;;;;;;2.67;1.27;;;;;;;27.68;29.60;100902.81;6486608;27;34128;-88
2022/05/10 11:05:33;;;;;;;1.40;1.30;;;;;;;28.38;29.54;100908.44;6449650;27;33004;-88
2022/05/10 11:08:48;;;;;;;1.65;1.55;;;;;;;27.93;30.13;100907.47;6446794;27;32386;-88
2022/05/10 11:12:11;;;;;;;0.75;0.75;;;;;;;27.01;32.09;100901.97;6448232;27;33847;-88
2022/05/10 11:15:30;;;;;;;1.25;1.15;;;;;;;26.32;32.62;100908.66;6445816;27;32825;-88
2022/05/10 11:18:54;;;;;;;1.35;1.25;;;;;;;26.00;33.35;100904.13;6464189;27;34172;-88
2022/05/10 11:22:39;;;;;;;1.35;1.23;;;;;;;25.24;33.88;100904.41;6445766;27;32614;-88
2022/05/10 11:25:59;;;;;;;1.48;1.10;;;;;;;24.62;35.06;100907.59;6449627;27;32369;-88
2022/05/10 11:29:17;;;;;;;1.27;1.17;;;;;;;23.80;37.47;100901.03;6447279;27;33401;-88
2022/05/10 11:32:41;;;;;;;2.10;1.00;;;;;;;23.43;38.35;100898.81;6467896;27;34629;-89
2022/05/10 11:35:57;;;;;;;0.80;0.80;;;;;;;23.31;38.69;100893.38;6468381;27;34039;-88
2022/05/10 11:39:32;;;;;;;0.82;0.82;;;;;;;23.51;39.75;100883.78;6449134;27;33175;-88
2022/05/10 11:42:57;;;;;;;1.37;1.10;;;;;;;25.19;37.31;100874.03;6481088;27;34136;-89
2022/05/10 11:46:31;;;;;;;1.77;0.90;;;;;;;28.62;30.58;100875.34;6469465;27;33794;-88
2022/05/10 11:50:05;;;;;;;0.57;0.47;;;;;;;30.03;28.90;100884.66;6495990;27;33607;-88
2022/05/10 11:53:34;;;;;;;0.80;0.80;;;;;;;29.69;28.87;100864.53;6450454;27;32429;-88
2022/05/10 11:56:39;;;;;;;1.35;0.82;;;;;;;30.06;28.11;100864.63;6469137;27;34141;-88
2022/05/10 11:59:44;;;;;;;0.82;0.82;;;;;;;30.03;28.87;100867.19;6447366;27;33190;-88
2022/05/10 12:02:47;;;;;;;0.77;0.77;;;;;;;31.05;28.38;100854.66;6466699;27;33992;-88
2022/05/10 12:05:50;;;;;;;1.35;0.75;;;;;;;33.13;24.08;100852.59;6467637;27;33820;-90
2022/05/10 12:08:54;;;;;;;0.98;0.55;;;;;;;34.16;23.49;100856.22;6468116;27;34392;-88
2022/05/10 12:11:57;;;;;;;0.93;0.85;;;;;;;34.80;23.24;100844.47;6468987;27;34059;-89
2022/05/10 12:21:54;;;;;;;1.10;0.80;;;;;;;34.69;23.07;100833.63;6467265;27;33818;-89
2022/05/10 12:24:57;;;;;;;0.95;0.70;;;;;;;35.35;22.24;100832.56;6467238;27;34178;-93
2022/05/10 12:28:01;;;;;;;0.88;0.88;;;;;;;34.00;22.96;100834.31;6468025;27;34298;-93
2022/05/10 12:31:31;;;;;;;0.80;0.80;;;;;;;34.39;22.19;100832.59;6467975;27;34959;-94
2022/05/10 12:34:37;;;;;;;2.78;0.82;;;;;;;35.16;21.57;100816.97;6464841;27;32523;-89
2022/05/10 12:37:50;;;;;;;0.82;0.82;;;;;;;34.49;21.58;100811.91;6448732;27;32555;-89
2022/05/10 12:41:05;;;;;;;0.93;0.68;;;;;;;34.57;22.05;100808.28;6469399;27;34116;-89
2022/05/10 12:44:21;;;;;;;0.65;0.65;;;;;;;35.13;21.82;100800.00;6470444;27;33800;-89
2022/05/10 12:47:33;;;;;;;0.52;0.52;;;;;;;35.33;20.71;100796.47;6470314;27;34324;-89
2022/05/10 12:50:47;;;;;;;0.90;0.90;;;;;;;35.15;20.43;100783.69;6470184;27;34633;-89
2022/05/10 12:53:51;;;;;;;1.10;0.77;;;;;;;35.17;21.16;100773.81;6451557;27;32578;-88
2022/05/10 12:57:19;;;;;;;0.60;0.60;;;;;;;35.04;20.26;100769.19;6459170;27;32686;-88
2022/05/10 13:00:25;;;;;;;0.50;0.45;;;;;;;36.02;19.30;100760.88;6478068;27;34626;-88
2022/05/10 13:03:37;;;;;;;0.62;0.62;;;;;;;37.37;17.81;100761.44;6454414;27;32747;-88
2022/05/10 13:07:11;;;;;;;0.45;0.45;;;;;;;37.90;17.05;100751.94;6459781;27;32669;-88
2022/05/10 13:10:20;;;;;;;0.75;0.68;;;;;;;37.04;18.39;100750.28;6481752;27;34148;-89
2022/05/10 13:13:31;;;;;;;0.47;0.40;;;;;;;36.88;18.37;100744.47;6475834;27;34231;-89
2022/05/10 13:16:34;;;;;;;0.60;0.60;;;;;;;37.61;17.66;100732.53;6470557;27;33929;-88
2022/05/10 13:19:42;;;;;;;1.45;0.60;;;;;;;36.84;17.94;100718.28;6470423;27;34558;-89
2022/05/10 13:23:00;;;;;;;0.70;0.70;;;;;;;36.97;18.02;100719.94;6471785;27;33863;-89
2022/05/10 13:26:09;;;;;;;0.60;0.55;;;;;;;37.49;17.61;100719.31;6450297;27;33581;-90
2022/05/10 13:29:13;;;;;;;0.60;0.60;;;;;;;37.34;17.57;100703.97;6449665;27;32920;-90
2022/05/10 13:32:41;;;;;;;0.40;0.40;;;;;;;35.90;18.87;100707.56;6468154;27;34317;-88
2022/05/10 13:35:49;;;;;;;0.60;0.60;;;;;;;36.23;17.86;100696.44;6449570;27;33062;-88
2022/05/10 13:38:55;;;;;;;0.40;0.40;;;;;;;37.60;17.80;100694.37;6468348;27;35368;-89
2022/05/10 13:42:08;;;;;;;0.45;0.45;;;;;;;37.80;17.15;100695.41;6450468;27;33493;-88
2022/05/10 13:45:18;;;;;;;1.05;0.70;;;;;;;38.69;16.54;100677.50;6450240;27;32340;-88
2022/05/10 13:48:29;;;;;;;0.62;0.62;;;;;;;38.53;16.25;100681.13;6483703;27;34185;-89
2022/05/10 13:51:43;;;;;;;1.25;0.57;;;;;;;38.76;17.34;100672.88;6462231;27;34336;-88
2022/05/10 13:54:56;;;;;;;0.70;0.70;;;;;;;39.01;15.43;100662.28;6469649;27;33948;-94
2022/05/10 13:58:02;;;;;;;0.77;0.77;;;;;;;38.79;16.12;100662.91;6469305;27;33511;-89
2022/05/10 14:01:06;;;;;;;;;;;;;;;38.16;16.15;100657.13;6469855;27;34876;-88
2022/05/10 14:04:12;;;;;;;1.20;0.62;;;;;;;36.20;17.80;100650.28;6449652;27;33691;-89
2022/05/10 14:07:30;;;;;;;1.83;0.60;;;;;;;33.78;20.67;100658.44;6473314;27;35206;-88
2022/05/10 14:10:37;;;;;;;0.70;0.70;;;;;;;33.41;20.65;100646.72;6469096;27;33841;-88
2022/05/10 14:13:47;;;;;;;0.77;0.70;;;;;;;32.90;21.16;100648.97;6449770;27;32362;-88
2022/05/10 14:16:51;;;;;;;1.67;0.90;;;;;;;30.92;23.80;100647.72;6467985;27;34000;-88
2022/05/10 14:19:55;;;;;;;0.60;0.60;;;;;;;29.68;24.82;100644.47;6468226;27;34195;-88
2022/05/10 14:23:01;;;;;;;0.70;0.70;;;;;;;28.84;25.68;100655.16;6469456;27;34408;-88
2022/05/10 14:26:29;;;;;;;0.82;0.80;;;;;;;28.37;27.00;100654.72;6468335;27;34083;-88
2022/05/10 14:29:46;;;;;;;0.80;0.80;;;;;;;27.94;28.48;100637.91;6465209;27;34090;-86
2022/05/10 14:32:48;;;;;;;0.82;0.70;;;;;;;27.53;28.34;100637.31;6446595;27;32374;-87
2022/05/10 14:36:00;;;;;;;2.08;0.90;;;;;;;27.08;27.37;100637.19;6448166;27;31894;-85
2022/05/10 14:39:10;;;;;;;0.80;0.73;;;;;;;26.87;29.01;100630.91;6447805;27;32728;-84
2022/05/10 14:42:25;;;;;;;1.15;1.00;;;;;;;26.84;28.65;100639.75;6447338;27;32279;-84
2022/05/10 14:45:29;;;;;;;1.10;1.00;;;;;;;26.28;28.65;100638.97;6466427;27;34578;-89
2022/05/10 14:48:45;;;;;;;0.88;0.70;;;;;;;26.04;29.68;100630.41;6467501;27;34639;-89
2022/05/10 14:51:49;;;;;;;1.67;0.80;;;;;;;26.06;29.13;100631.75;6446980;27;33391;-86
2022/05/10 14:54:53;;;;;;;0.95;0.85;;;;;;;26.14;30.46;100636.75;6446008;27;32507;-84
2022/05/10 14:57:58;;;;;;;0.80;0.80;;;;;;;25.89;28.79;100620.19;6466403;27;33890;-84
2022/05/10 15:01:08;;;;;;;0.82;0.43;;;;;;;25.78;27.99;100625.66;6468598;27;34718;-84
2022/05/10 15:04:17;;;;;;;3.53;1.00;;;;;;;25.56;29.25;100625.88;6471985;27;34132;-85
2022/05/10 15:07:21;;;;;;;0.70;0.70;;;;;;;25.39;30.52;100618.91;6446386;27;32402;-83
2022/05/10 15:10:24;;;;;;;0.60;0.60;;;;;;;25.16;29.77;100617.47;6467589;27;34616;-83
2022/05/10 15:13:27;;;;;;;1.12;1.05;;;;;;;25.04;30.14;100624.00;6467291;27;34641;-83
2022/05/10 15:16:43;;;;;;;1.20;0.75;;;;;;;25.03;30.22;100619.56;6467345;27;34260;-84
2022/05/10 15:19:54;;;;;;;0.68;0.68;;;;;;;24.91;29.50;100626.41;6467092;27;34012;-83
2022/05/10 15:22:57;;;;;;;0.80;0.80;;;;;;;24.62;29.81;100615.75;6450047;27;32461;-84
2022/05/10 15:26:01;;;;;;;0.80;0.80;;;;;;;24.49;30.39;100622.56;6451151;27;32330;-84
2022/05/10 15:29:05;;;;;;;2.83;0.70;;;;;;;24.46;29.96;100619.53;6483570;27;34677;-84
2022/05/10 15:32:09;;;;;;;0.90;0.90;;;;;;;24.42;30.56;100619.16;6458840;27;32796;-83
2022/05/10 15:35:12;;;;;;;0.95;0.88;;;;;;;24.32;30.60;100621.84;6463591;27;33598;-85
2022/05/10 15:38:16;;;;;;;0.77;0.70;;;;;;;24.20;31.05;100622.84;6465504;27;32748;-85
2022/05/10 15:41:19;;;;;;;0.82;0.80;;;;;;;24.35;30.90;100615.81;6472216;27;34904;-89
2022/05/10 15:44:22;;;;;;;0.98;0.88;;;;;;;24.29;30.63;100612.19;6458475;27;32602;-88
2022/05/10 15:47:28;;;;;;;0.95;0.95;;;;;;;24.26;30.62;100604.47;6459002;27;33104;-89
2022/05/10 15:50:39;;;;;;;0.60;0.60;;;;;;;24.26;31.01;100615.47;6463109;27;32821;-88
2022/05/10 15:53:45;;;;;;;0.65;0.65;;;;;;;24.16;30.62;100607.97;6459212;27;32009;-88
2022/05/10 15:56:48;;;;;;;0.90;0.90;;;;;;;23.99;30.87;100608.09;6456938;27;33869;-88
